Time;durP1;ratioP1;P1;durP2;ratioP2;P2;SDS_P1;SDS_P2;PMS_P1;PMS_P2;Temp;Humidity;BMP_temperature;BMP_pressure;BME280_temperature;BME280_humidity;BME280_pressure;Samples;Min_cycle;Max_cycle;Signal;HPM_P1;HPM_P2
2021/04/01 00:00:12;;;;;;;5.10;4.50;;;23.40;50.70;;;;;;4948786;28;20214;-82
2021/04/01 00:02:39;;;;;;;4.97;4.40;;;23.40;50.70;;;;;;4944450;28;20194;-81
2021/04/01 00:05:07;;;;;;;4.90;4.40;;;23.50;50.80;;;;;;4945534;28;20202;-81
2021/04/01 00:07:34;;;;;;;4.97;4.40;;;23.40;50.80;;;;;;4948659;28;20236;-82
2021/04/01 00:10:00;;;;;;;5.00;4.50;;;23.40;50.70;;;;;;4949216;28;20288;-82
2021/04/01 00:12:27;;;;;;;5.10;4.00;;;23.40;50.70;;;;;;4947052;29;20206;-82
2021/04/01 00:14:53;;;;;;;5.30;4.43;;;23.40;50.70;;;;;;4945866;29;20725;-82
2021/04/01 00:17:20;;;;;;;6.03;4.63;;;23.40;50.70;;;;;;4947049;28;20194;-82
2021/04/01 00:19:46;;;;;;;5.20;4.63;;;23.40;51.30;;;;;;4945469;28;20859;-82
2021/04/01 00:22:14;;;;;;;5.40;4.90;;;23.40;50.70;;;;;;4945454;28;20205;-83
2021/04/01 00:24:41;;;;;;;5.00;4.13;;;23.40;50.70;;;;;;4942321;28;20190;-82
2021/04/01 00:27:07;;;;;;;6.20;4.50;;;23.40;50.70;;;;;;4947529;29;20206;-82
2021/04/01 00:29:34;;;;;;;4.83;4.07;;;23.40;50.70;;;;;;4942697;29;20198;-82
2021/04/01 00:32:03;;;;;;;4.97;4.47;;;23.30;50.70;;;;;;4948715;28;20197;-83
2021/04/01 00:34:29;;;;;;;5.50;5.00;;;23.30;50.60;;;;;;4946611;29;20201;-83
2021/04/01 00:36:56;;;;;;;4.83;4.40;;;23.30;50.70;;;;;;4942450;29;20201;-83
2021/04/01 00:39:22;;;;;;;4.97;4.40;;;23.30;50.80;;;;;;4946481;29;20201;-83
2021/04/01 00:41:49;;;;;;;5.37;4.87;;;23.30;50.80;;;;;;4945085;28;20234;-82
2021/04/01 00:44:16;;;;;;;5.33;4.80;;;23.30;50.70;;;;;;4946099;28;20233;-82
2021/04/01 00:46:48;;;;;;;4.87;4.43;;;23.30;50.70;;;;;;4946590;28;20236;-82
2021/04/01 00:49:15;;;;;;;4.97;4.50;;;23.30;50.70;;;;;;4945631;28;20232;-82
2021/04/01 00:51:42;;;;;;;5.33;4.67;;;23.30;50.80;;;;;;4948198;29;20198;-81
2021/04/01 00:54:09;;;;;;;4.87;4.37;;;23.20;50.60;;;;;;4947061;28;20253;-81
2021/04/01 00:56:36;;;;;;;4.90;4.43;;;23.20;50.70;;;;;;4947315;28;20260;-82
2021/04/01 00:59:03;;;;;;;4.73;4.27;;;23.20;50.70;;;;;;4945927;28;20401;-82
2021/04/01 01:04:14;;;;;;;5.27;4.50;;;23.20;50.70;;;;;;4943756;29;20200;-82
2021/04/01 01:06:41;;;;;;;5.10;4.60;;;23.20;50.70;;;;;;4942607;28;20267;-82
2021/04/01 01:09:08;;;;;;;5.53;4.47;;;23.20;50.70;;;;;;4944872;28;20208;-81
2021/04/01 01:11:39;;;;;;;5.67;4.63;;;23.20;50.70;;;;;;4942942;29;20282;-81
2021/04/01 01:14:08;;;;;;;5.20;4.70;;;23.20;50.80;;;;;;4944868;28;20189;-82
2021/04/01 01:16:36;;;;;;;6.30;4.63;;;23.20;50.70;;;;;;4944279;28;20239;-82
2021/04/01 01:19:04;;;;;;;5.37;4.80;;;23.10;50.70;;;;;;4944140;29;20198;-82
2021/04/01 01:21:31;;;;;;;6.10;4.30;;;23.10;50.70;;;;;;4960011;28;20229;-80
2021/04/01 01:23:58;;;;;;;5.30;4.80;;;23.20;50.70;;;;;;4958906;28;20202;-81
2021/04/01 01:26:25;;;;;;;5.53;4.90;;;23.10;50.70;;;;;;4942609;28;20770;-81
2021/04/01 01:28:53;;;;;;;4.50;4.10;;;23.10;50.70;;;;;;4939245;28;20209;-82
2021/04/01 01:31:21;;;;;;;4.97;4.47;;;23.10;50.70;;;;;;4941507;29;22633;-82
2021/04/01 01:33:48;;;;;;;5.10;4.60;;;23.10;50.70;;;;;;4942256;29;20197;-82
2021/04/01 01:36:16;;;;;;;5.27;4.77;;;23.10;50.70;;;;;;4946167;28;20214;-82
2021/04/01 01:38:44;;;;;;;5.30;4.80;;;23.10;50.70;;;;;;4944505;29;20249;-82
2021/04/01 01:41:11;;;;;;;4.97;4.47;;;23.10;50.70;;;;;;4947702;29;20213;-82
2021/04/01 01:43:37;;;;;;;5.77;5.17;;;23.10;50.80;;;;;;4946872;29;20197;-82
2021/04/01 01:46:03;;;;;;;5.63;4.83;;;23.10;50.80;;;;;;4943432;28;20813;-82
2021/04/01 01:48:30;;;;;;;5.77;5.00;;;23.10;50.70;;;;;;4947321;29;20202;-84
2021/04/01 01:50:58;;;;;;;6.13;5.50;;;23.00;50.60;;;;;;4943865;28;20272;-82
2021/04/01 01:53:25;;;;;;;5.70;4.93;;;23.00;50.70;;;;;;4936666;29;20194;-82
2021/04/01 01:55:51;;;;;;;6.27;5.13;;;23.00;50.60;;;;;;4948095;28;20208;-82
2021/04/01 01:58:18;;;;;;;6.83;5.70;;;23.10;50.60;;;;;;4943808;29;20213;-83
2021/04/01 02:00:54;;;;;;;5.97;5.40;;;23.00;50.60;;;;;;4944064;28;20209;-82
2021/04/01 02:03:23;;;;;;;6.97;5.40;;;23.00;50.60;;;;;;4946886;29;20212;-83
2021/04/01 02:05:50;;;;;;;7.57;5.63;;;23.00;50.70;;;;;;4947742;28;20194;-83
2021/04/01 02:08:17;;;;;;;6.73;5.47;;;23.00;50.60;;;;;;4943184;28;20710;-83
2021/04/01 02:10:50;;;;;;;7.03;5.87;;;23.00;50.70;;;;;;4943067;28;20225;-82
2021/04/01 02:13:20;;;;;;;5.83;5.23;;;23.00;50.70;;;;;;4941969;29;20190;-82
2021/04/01 02:15:48;;;;;;;8.30;5.73;;;23.00;50.70;;;;;;4941888;29;20201;-83
2021/04/01 02:18:22;;;;;;;5.70;4.77;;;22.90;50.60;;;;;;4946767;28;20202;-83
2021/04/01 02:20:51;;;;;;;6.40;5.60;;;23.00;50.60;;;;;;4940046;29;20225;-83
2021/04/01 02:23:25;;;;;;;6.23;5.63;;;22.90;50.60;;;;;;4942609;28;20198;-83
2021/04/01 02:25:53;;;;;;;6.77;6.00;;;23.00;50.70;;;;;;4949624;28;20213;-83
2021/04/01 02:28:24;;;;;;;6.27;5.67;;;23.00;50.60;;;;;;4949450;28;20197;-83
2021/04/01 02:31:00;;;;;;;7.73;5.90;;;22.90;50.60;;;;;;4949493;28;20682;-83
2021/04/01 02:33:28;;;;;;;6.50;5.90;;;23.00;50.60;;;;;;4949552;29;20617;-83
2021/04/01 02:35:55;;;;;;;7.27;5.67;;;23.00;50.60;;;;;;4946829;28;20290;-84
2021/04/01 02:38:23;;;;;;;6.63;5.93;;;22.90;50.50;;;;;;4947966;28;20218;-84
2021/04/01 02:40:53;;;;;;;6.70;5.33;;;22.90;50.50;;;;;;4942826;29;20226;-84
2021/04/01 02:43:26;;;;;;;6.33;5.53;;;22.90;50.60;;;;;;4949420;28;20549;-84
2021/04/01 02:45:53;;;;;;;8.70;6.13;;;22.90;50.50;;;;;;4946584;29;20515;-83
2021/04/01 02:48:19;;;;;;;6.23;5.63;;;22.90;50.50;;;;;;4947349;28;20198;-83
2021/04/01 02:50:46;;;;;;;6.77;6.07;;;22.90;50.50;;;;;;4943909;28;20359;-82
2021/04/01 02:53:12;;;;;;;6.57;5.90;;;22.90;50.50;;;;;;4944155;28;20293;-82
2021/04/01 02:55:39;;;;;;;7.73;6.17;;;22.90;50.50;;;;;;4950388;28;20201;-82
2021/04/01 02:58:05;;;;;;;6.53;5.93;;;22.90;50.50;;;;;;4949922;28;20197;-82
2021/04/01 03:00:33;;;;;;;6.83;6.10;;;22.80;50.40;;;;;;4946229;29;20341;-82
2021/04/01 03:03:13;;;;;;;6.80;6.10;;;22.90;50.50;;;;;;4949546;29;20267;-82
2021/04/01 03:05:40;;;;;;;6.20;5.60;;;22.80;50.40;;;;;;4945642;29;20572;-82
2021/04/01 03:08:06;;;;;;;7.67;6.57;;;22.90;50.50;;;;;;4945245;29;20299;-82
2021/04/01 03:10:33;;;;;;;6.93;6.23;;;22.80;50.50;;;;;;4950063;28;20209;-82
2021/04/01 03:12:59;;;;;;;6.70;6.10;;;22.80;50.40;;;;;;4947000;28;20197;-82
2021/04/01 03:15:25;;;;;;;6.43;5.80;;;22.80;50.40;;;;;;4942442;28;20209;-82
2021/04/01 03:17:51;;;;;;;7.17;6.47;;;22.80;50.50;;;;;;4945094;28;20194;-82
2021/04/01 03:20:18;;;;;;;7.67;6.43;;;22.80;50.40;;;;;;4944891;28;20213;-82
2021/04/01 03:22:45;;;;;;;6.87;6.17;;;22.80;50.40;;;;;;4949730;28;20206;-82
2021/04/01 03:25:13;;;;;;;7.07;6.10;;;22.80;50.40;;;;;;4940723;28;20190;-82
2021/04/01 03:27:40;;;;;;;7.53;6.03;;;22.80;50.40;;;;;;4948524;28;20210;-83
2021/04/01 03:30:10;;;;;;;7.90;6.53;;;22.80;50.50;;;;;;4949093;28;20189;-83
2021/04/01 03:32:44;;;;;;;6.33;5.73;;;22.80;50.40;;;;;;4937534;29;20220;-83
2021/04/01 03:35:16;;;;;;;6.67;6.07;;;22.80;50.40;;;;;;4946987;28;20206;-83
2021/04/01 03:37:44;;;;;;;7.17;6.47;;;22.70;50.40;;;;;;4945976;28;20785;-83
2021/04/01 03:40:12;;;;;;;8.07;6.40;;;22.70;50.40;;;;;;4945281;29;20260;-83
2021/04/01 03:42:38;;;;;;;8.40;6.20;;;22.70;50.40;;;;;;4942852;29;20319;-84
2021/04/01 03:45:10;;;;;;;7.80;7.00;;;22.70;50.50;;;;;;4943401;28;20237;-83
2021/04/01 03:47:38;;;;;;;9.23;7.17;;;22.70;50.40;;;;;;4945561;29;20935;-82
2021/04/01 03:50:06;;;;;;;7.13;6.43;;;22.70;50.40;;;;;;4943598;29;20194;-82
2021/04/01 03:52:33;;;;;;;7.13;6.43;;;22.70;50.40;;;;;;4959556;28;20204;-83
2021/04/01 03:55:06;;;;;;;7.57;6.77;;;22.70;50.40;;;;;;4948213;28;20252;-81
2021/04/01 03:57:32;;;;;;;7.20;6.50;;;22.70;50.40;;;;;;4946062;28;20280;-82
2021/04/01 04:02:40;;;;;;;7.57;6.70;;;22.70;50.40;;;;;;4940264;29;20232;-82
2021/04/01 04:05:22;;;;;;;7.37;6.67;;;22.70;50.40;;;;;;4944877;28;20206;-83
2021/04/01 04:08:01;;;;;;;8.43;7.43;;;22.70;50.30;;;;;;4940926;28;20242;-82
2021/04/01 04:10:40;;;;;;;9.17;6.20;;;22.70;50.30;;;;;;4942342;29;20238;-83
2021/04/01 04:16:12;;;;;;;8.70;6.90;;;22.60;50.30;;;;;;4913115;29;20218;-82
2021/04/01 04:18:38;;;;;;;7.40;6.50;;;22.60;50.30;;;;;;4918989;29;22326;-82
2021/04/01 04:21:06;;;;;;;8.43;7.03;;;22.60;50.20;;;;;;4938451;28;20465;-81
2021/04/01 04:23:34;;;;;;;8.47;6.60;;;22.60;50.30;;;;;;4960656;28;20686;-82
2021/04/01 04:26:01;;;;;;;7.67;6.87;;;22.60;50.30;;;;;;4939212;29;20198;-82
2021/04/01 04:30:53;;;;;;;9.37;6.83;;;22.60;50.80;;;;;;4943194;28;20260;-82
2021/04/01 04:33:19;;;;;;;8.80;7.10;;;22.60;50.20;;;;;;4942681;28;20225;-82
2021/04/01 04:35:48;;;;;;;8.57;6.80;;;22.50;50.80;;;;;;4947726;29;20193;-81
2021/04/01 04:38:15;;;;;;;8.93;7.30;;;22.60;50.30;;;;;;4942472;29;20194;-82
2021/04/01 04:40:41;;;;;;;7.87;7.07;;;22.60;50.30;;;;;;4947587;28;20205;-82
2021/04/01 04:43:08;;;;;;;8.03;7.13;;;22.60;50.20;;;;;;4950594;28;20614;-81
2021/04/01 04:45:35;;;;;;;8.47;7.27;;;22.50;50.10;;;;;;4940598;28;20197;-81
2021/04/01 04:48:04;;;;;;;7.90;7.10;;;22.50;50.10;;;;;;4943092;29;20206;-81
2021/04/01 04:50:30;;;;;;;8.80;7.20;;;22.50;50.10;;;;;;4943279;28;20651;-82
2021/04/01 04:52:57;;;;;;;8.80;7.60;;;22.50;50.10;;;;;;4948293;29;20190;-81
2021/04/01 04:55:24;;;;;;;10.63;7.30;;;22.50;50.10;;;;;;4945772;28;20221;-80
2021/04/01 04:58:05;;;;;;;8.83;7.93;;;22.50;50.10;;;;;;4944847;28;20218;-81
2021/04/01 05:06:04;;;;;;;8.57;7.50;;;22.50;50.10;;;;;;4950740;29;20206;-81
2021/04/01 05:08:32;;;;;;;9.87;7.80;;;22.40;50.10;;;;;;4951725;28;20249;-81
2021/04/01 05:10:58;;;;;;;9.07;8.13;;;22.40;50.70;;;;;;4947756;29;20205;-81
2021/04/01 05:13:25;;;;;;;8.07;7.27;;;22.40;50.00;;;;;;4937904;29;20190;-81
2021/04/01 05:15:52;;;;;;;10.30;8.63;;;22.40;50.00;;;;;;4944721;28;20206;-81
2021/04/01 05:18:30;;;;;;;8.70;7.77;;;22.40;50.00;;;;;;4946574;29;20214;-81
2021/04/01 05:20:58;;;;;;;8.97;8.03;;;22.40;50.00;;;;;;4945099;29;20221;-80
2021/04/01 05:23:34;;;;;;;9.43;8.27;;;22.40;50.00;;;;;;4944907;28;20202;-81
2021/04/01 05:28:34;;;;;;;9.60;8.60;;;22.40;49.90;;;;;;4942685;29;20272;-78
2021/04/01 05:31:11;;;;;;;10.00;9.00;;;22.40;49.90;;;;;;4940389;29;20268;-78
2021/04/01 05:33:42;;;;;;;10.30;8.80;;;22.40;49.90;;;;;;4944366;28;20202;-79
2021/04/01 05:36:10;;;;;;;11.57;10.10;;;22.40;49.90;;;;;;4944890;28;20202;-85
2021/04/01 05:38:38;;;;;;;9.87;8.83;;;22.30;49.80;;;;;;4940086;28;20225;-82
2021/04/01 05:41:08;;;;;;;12.23;9.50;;;22.30;49.80;;;;;;4944357;28;20224;-80
2021/04/01 05:43:38;;;;;;;12.07;10.27;;;22.40;49.80;;;;;;4945773;29;20198;-80
2021/04/01 05:49:16;;;;;;;13.73;10.07;;;22.40;49.90;;;;;;4944220;29;20221;-80
2021/04/01 05:52:39;;;;;;;14.33;11.13;;;22.40;50.00;;;;;;4941147;29;20702;-80
2021/04/01 05:57:35;;;;;;;15.73;10.87;;;22.30;50.00;;;;;;4941182;28;20202;-82
2021/04/01 06:03:05;;;;;;;12.13;9.93;;;22.30;50.00;;;;;;4945598;29;20224;-78
2021/04/01 06:05:36;;;;;;;12.40;11.10;;;22.40;50.00;;;;;;4945086;28;20206;-81
2021/04/01 06:08:08;;;;;;;13.37;10.27;;;22.30;50.00;;;;;;4946817;28;20246;-85
2021/04/01 06:10:36;;;;;;;13.23;11.27;;;22.30;50.00;;;;;;4946763;28;20221;-80
2021/04/01 06:13:11;;;;;;;17.97;12.57;;;22.30;49.90;;;;;;4947853;28;20197;-82
2021/04/01 06:15:38;;;;;;;33.90;15.10;;;22.30;51.00;;;;;;4945806;28;20198;-79
2021/04/01 06:18:12;;;;;;;39.33;16.70;;;22.30;51.00;;;;;;4950597;28;20205;-78
2021/04/01 06:20:42;;;;;;;47.63;18.17;;;22.30;50.70;;;;;;4946743;28;20204;-82
2021/04/01 06:23:11;;;;;;;36.87;16.90;;;22.30;50.90;;;;;;4947051;28;20197;-79
2021/04/01 06:25:39;;;;;;;32.43;17.03;;;22.40;50.80;;;;;;4945190;28;20209;-77
2021/04/01 06:28:12;;;;;;;27.67;15.40;;;22.40;50.70;;;;;;4938422;28;20211;-81
2021/04/01 06:30:48;;;;;;;29.77;15.87;;;22.30;50.50;;;;;;4948793;28;20217;-81
2021/04/01 06:33:20;;;;;;;27.47;14.83;;;22.20;50.30;;;;;;4962010;28;20190;-81
2021/04/01 06:36:06;;;;;;;26.53;15.37;;;22.30;50.10;;;;;;4949789;28;20303;-77
2021/04/01 06:38:36;;;;;;;23.87;16.03;;;22.30;50.00;;;;;;4947642;29;20965;-80
2021/04/01 06:41:11;;;;;;;23.23;15.20;;;22.30;50.00;;;;;;4948427;29;20740;-82
2021/04/01 06:43:49;;;;;;;25.30;15.90;;;22.30;50.00;;;;;;4948580;28;20720;-81
2021/04/01 06:46:18;;;;;;;22.13;15.00;;;22.30;50.10;;;;;;4949975;28;20206;-81
2021/04/01 06:49:16;;;;;;;24.57;14.70;;;22.30;50.20;;;;;;4947891;28;20202;-79
2021/04/01 06:52:10;;;;;;;23.23;15.47;;;22.30;50.20;;;;;;4948582;28;20201;-83
2021/04/01 06:54:42;;;;;;;22.27;16.17;;;22.30;50.30;;;;;;4938311;28;20205;-82
2021/04/01 07:00:24;;;;;;;23.83;15.37;;;22.40;51.40;;;;;;4947104;28;20202;-87
2021/04/01 07:03:10;;;;;;;20.57;14.17;;;22.50;51.40;;;;;;4955395;28;20210;-88
2021/04/01 07:08:42;;;;;;;22.43;14.33;;;22.60;51.20;;;;;;4947901;28;20364;-88
2021/04/01 07:11:20;;;;;;;17.57;13.97;;;22.70;51.20;;;;;;4946748;28;20757;-90
2021/04/01 07:13:51;;;;;;;18.23;13.30;;;22.80;51.40;;;;;;4947020;28;20194;-93
2021/04/01 07:16:38;;;;;;;17.43;12.67;;;22.80;51.50;;;;;;4965088;28;20190;-90
2021/04/01 07:30:47;;;;;;;14.00;11.57;;;23.00;51.60;;;;;;4947410;28;20193;-85
2021/04/01 07:48:47;;;;;;;12.03;9.63;;;23.50;51.40;;;;;;4965378;28;20212;-82
2021/04/01 07:54:16;;;;;;;15.10;10.00;;;23.60;51.60;;;;;;4955017;28;20197;-81
2021/04/01 07:57:21;;;;;;;17.50;9.97;;;23.60;51.10;;;;;;4972963;28;20215;-84
2021/04/01 08:03:03;;;;;;;16.70;9.93;;;23.70;50.90;;;;;;4963103;28;20225;-79
2021/04/01 08:05:36;;;;;;;10.67;8.93;;;23.80;51.00;;;;;;4960205;28;20205;-80
2021/04/01 08:08:08;;;;;;;12.00;9.77;;;23.80;50.70;;;;;;4958829;28;20200;-80
2021/04/01 08:10:45;;;;;;;11.13;9.20;;;23.90;50.60;;;;;;4959372;28;20581;-81
2021/04/01 08:13:17;;;;;;;14.00;9.67;;;23.80;50.60;;;;;;4950515;28;20212;-79
2021/04/01 08:15:51;;;;;;;14.17;9.87;;;23.90;50.60;;;;;;4959373;28;20340;-81
2021/04/01 08:18:26;;;;;;;11.60;9.20;;;23.90;50.90;;;;;;4963711;28;20193;-82
2021/04/01 08:20:59;;;;;;;11.83;9.10;;;23.90;50.20;;;;;;4954050;28;20666;-80
2021/04/01 08:23:58;;;;;;;10.87;8.90;;;23.90;50.70;;;;;;4964320;28;20217;-88
2021/04/01 08:27:08;;;;;;;10.40;9.20;;;24.00;50.50;;;;;;4962000;28;20209;-82
2021/04/01 08:38:31;;;;;;;12.63;9.03;;;24.20;50.40;;;;;;4994213;23;20869;-85
2021/04/01 08:44:56;;;;;;;13.23;9.03;;;24.20;50.40;;;;;;4926875;29;20639;-86
2021/04/01 08:48:19;;;;;;;12.80;9.67;;;24.30;50.30;;;;;;4951361;23;20246;-95
2021/04/01 08:51:12;;;;;;;11.53;8.97;;;24.30;50.00;;;;;;4907343;29;20207;-85
2021/04/01 08:54:09;;;;;;;13.90;9.60;;;24.40;49.90;;;;;;4905437;29;20211;-83
2021/04/01 08:56:39;;;;;;;13.63;10.17;;;24.40;49.90;;;;;;4901452;29;20719;-84
2021/04/01 08:59:29;;;;;;;13.70;9.83;;;24.50;49.60;;;;;;4901646;29;20968;-84
2021/04/01 09:01:57;;;;;;;16.03;10.67;;;24.40;49.90;;;;;;4903866;29;20326;-85
2021/04/01 09:04:32;;;;;;;14.77;10.70;;;24.40;49.80;;;;;;4902476;29;20206;-82
2021/04/01 09:07:03;;;;;;;15.63;9.73;;;24.50;49.60;;;;;;4906822;29;20755;-82
2021/04/01 09:09:32;;;;;;;13.73;9.70;;;24.50;49.20;;;;;;4903232;29;20199;-82
2021/04/01 09:12:35;;;;;;;14.73;9.67;;;24.60;49.40;;;;;;4931424;29;20233;-81
2021/04/01 09:15:07;;;;;;;14.53;9.23;;;24.60;49.30;;;;;;4905257;29;20202;-84
2021/04/01 09:17:36;;;;;;;14.70;9.73;;;24.60;49.70;;;;;;4904731;29;20696;-83
2021/04/01 09:20:20;;;;;;;13.70;9.53;;;24.60;49.50;;;;;;4897633;29;20221;-83
2021/04/01 09:22:56;;;;;;;16.70;9.60;;;24.60;49.50;;;;;;4900068;29;20227;-82
2021/04/01 09:25:38;;;;;;;16.07;8.87;;;24.70;49.50;;;;;;4903035;29;20201;-83
2021/04/01 09:28:08;;;;;;;15.80;8.90;;;24.70;49.20;;;;;;4932716;28;20199;-83
2021/04/01 09:30:35;;;;;;;18.00;9.90;;;24.70;49.30;;;;;;4904813;29;20210;-82
2021/04/01 09:33:06;;;;;;;19.60;10.73;;;24.70;48.70;;;;;;4921111;28;20977;-85
2021/04/01 09:35:38;;;;;;;15.03;10.07;;;24.60;48.90;;;;;;4921699;29;20206;-84
2021/04/01 09:38:11;;;;;;;18.73;10.57;;;24.70;48.80;;;;;;4921945;29;20274;-81
2021/04/01 09:40:45;;;;;;;16.97;10.20;;;24.70;48.50;;;;;;4920650;29;20927;-82
2021/04/01 09:43:19;;;;;;;16.63;9.20;;;24.70;48.80;;;;;;4927083;29;20214;-83
2021/04/01 09:45:48;;;;;;;24.87;11.30;;;24.80;48.90;;;;;;4936843;28;20205;-83
2021/04/01 09:48:16;;;;;;;12.77;8.83;;;24.90;49.40;;;;;;4917703;29;20265;-81
2021/04/01 09:50:47;;;;;;;20.60;11.27;;;24.90;49.10;;;;;;4917665;29;20202;-82
2021/04/01 09:53:21;;;;;;;17.23;9.70;;;24.90;48.70;;;;;;4918902;29;20211;-82
2021/04/01 09:55:50;;;;;;;16.33;10.67;;;24.90;48.90;;;;;;4923256;29;21610;-85
2021/04/01 09:58:26;;;;;;;13.93;9.03;;;24.90;48.60;;;;;;4924477;29;20198;-79
2021/04/01 10:04:05;;;;;;;15.63;10.10;;;25.00;49.20;;;;;;4918862;29;20206;-83
2021/04/01 10:06:40;;;;;;;16.83;10.17;;;25.00;49.10;;;;;;4917021;29;20213;-81
2021/04/01 10:09:17;;;;;;;16.27;10.47;;;25.00;48.90;;;;;;4918183;29;20208;-83
2021/04/01 10:11:55;;;;;;;16.87;10.27;;;25.00;49.00;;;;;;4924167;29;20214;-81
2021/04/01 10:14:22;;;;;;;15.27;10.30;;;25.00;47.40;;;;;;4924052;29;20193;-80
2021/04/01 10:16:59;;;;;;;20.10;12.30;;;24.90;47.20;;;;;;4926013;29;20206;-81
2021/04/01 10:19:37;;;;;;;21.07;12.83;;;24.70;46.90;;;;;;4925371;29;20220;-81
2021/04/01 10:22:04;;;;;;;25.50;13.83;;;24.70;46.70;;;;;;4926370;29;20321;-81
2021/04/01 10:24:35;;;;;;;19.67;13.57;;;24.60;46.70;;;;;;4924069;29;20667;-81
2021/04/01 10:27:08;;;;;;;22.03;14.17;;;24.60;46.70;;;;;;4926467;29;20595;-81
2021/04/01 10:29:43;;;;;;;17.80;12.57;;;24.60;47.00;;;;;;4925889;28;20226;-80
2021/04/01 10:32:10;;;;;;;18.03;11.70;;;24.60;47.30;;;;;;4925345;29;20190;-81
2021/04/01 10:34:53;;;;;;;22.23;13.90;;;24.50;47.40;;;;;;4925810;29;20198;-80
2021/04/01 10:37:23;;;;;;;21.63;15.47;;;24.50;47.20;;;;;;4938034;29;20973;-81
2021/04/01 10:39:51;;;;;;;23.87;15.93;;;24.40;46.90;;;;;;4926135;29;20290;-82
2021/04/01 10:42:26;;;;;;;26.30;16.10;;;24.40;46.80;;;;;;4924992;29;20222;-80
2021/04/01 10:44:59;;;;;;;20.47;14.03;;;24.40;47.30;;;;;;4927054;29;20202;-82
2021/04/01 10:47:43;;;;;;;22.33;15.73;;;24.40;46.60;;;;;;4928044;29;20242;-79
2021/04/01 10:50:11;;;;;;;22.27;15.43;;;24.40;46.80;;;;;;4922595;29;20202;-82
2021/04/01 10:52:37;;;;;;;23.67;16.27;;;24.40;46.80;;;;;;4924777;29;20198;-81
2021/04/01 10:55:04;;;;;;;27.93;18.00;;;24.40;46.80;;;;;;4929758;29;20233;-81
2021/04/01 10:57:33;;;;;;;33.60;20.97;;;24.30;46.50;;;;;;4937336;29;20225;-89
2021/04/01 11:00:09;;;;;;;30.40;19.50;;;24.30;47.90;;;;;;4925824;29;20206;-84
2021/04/01 11:02:40;;;;;;;27.10;18.70;;;24.40;47.70;;;;;;4924684;29;20217;-84
2021/04/01 11:05:12;;;;;;;28.70;19.23;;;24.50;47.60;;;;;;4925112;29;20270;-82
2021/04/01 11:07:46;;;;;;;25.70;19.20;;;24.60;47.80;;;;;;4923897;29;20202;-83
2021/04/01 11:10:24;;;;;;;27.90;17.70;;;24.70;48.20;;;;;;4926381;29;20651;-83
2021/04/01 11:12:53;;;;;;;30.10;20.30;;;24.80;48.20;;;;;;4925299;29;20285;-90
2021/04/01 11:15:49;;;;;;;25.63;18.13;;;24.70;47.90;;;;;;4928948;29;20214;-96
2021/04/01 11:18:18;;;;;;;24.70;18.07;;;24.80;48.30;;;;;;4924762;29;20289;-86
2021/04/01 11:20:50;;;;;;;25.37;18.17;;;24.90;48.30;;;;;;4922028;29;20612;-89
2021/04/01 11:23:25;;;;;;;27.93;17.60;;;24.90;48.20;;;;;;4940203;28;20249;-82
2021/04/01 11:25:54;;;;;;;23.57;16.83;;;25.00;48.30;;;;;;4922692;29;20194;-86
2021/04/01 11:28:37;;;;;;;22.23;16.97;;;25.00;48.60;;;;;;4944203;29;20286;-90
2021/04/01 11:31:05;;;;;;;22.37;17.43;;;25.00;48.50;;;;;;4926350;29;20670;-88
2021/04/01 11:33:32;;;;;;;26.10;17.70;;;25.10;48.20;;;;;;4923211;29;20582;-86
2021/04/01 11:36:08;;;;;;;25.33;19.00;;;25.10;48.30;;;;;;4926247;29;20206;-83
2021/04/01 11:38:42;;;;;;;26.10;17.27;;;25.10;48.50;;;;;;4924290;29;20515;-86
2021/04/01 11:41:12;;;;;;;21.10;17.03;;;25.20;48.50;;;;;;4923006;29;20195;-86
2021/04/01 11:43:39;;;;;;;21.97;17.10;;;25.20;48.50;;;;;;4925353;29;20250;-87
2021/04/01 11:46:30;;;;;;;24.03;17.37;;;25.30;48.20;;;;;;4924395;29;20575;-84
2021/04/01 11:48:58;;;;;;;23.57;17.03;;;25.40;48.30;;;;;;4921945;29;20202;-83
2021/04/01 11:51:32;;;;;;;26.27;18.37;;;25.40;48.40;;;;;;4923326;29;20210;-84
2021/04/01 11:53:58;;;;;;;21.43;15.83;;;25.40;48.40;;;;;;4927864;29;20731;-81
2021/04/01 11:56:34;;;;;;;23.57;18.43;;;25.40;47.50;;;;;;4940443;28;20322;-84
2021/04/01 11:59:13;;;;;;;27.70;21.07;;;25.20;47.10;;;;;;4924567;29;20199;-92
2021/04/01 12:01:54;;;;;;;24.60;17.60;;;25.30;47.60;;;;;;4932706;29;20744;-87
2021/04/01 12:04:24;;;;;;;24.23;18.77;;;25.40;48.40;;;;;;4928163;29;20233;-87
2021/04/01 12:09:28;;;;;;;23.90;17.60;;;25.50;47.60;;;;;;4186831;23;20882;-94
2021/04/01 12:11:56;;;;;;;25.07;20.03;;;25.60;48.80;;;;;;4956414;28;20317;-91
2021/04/01 12:15:11;;;;;;;26.53;20.47;;;25.60;47.60;;;;;;4941914;28;20205;-92
2021/04/01 12:17:41;;;;;;;22.90;18.83;;;25.70;48.10;;;;;;4884524;29;20211;-87
2021/04/01 12:20:14;;;;;;;22.07;17.47;;;25.70;48.20;;;;;;4877538;29;20433;-88
2021/04/01 12:22:45;;;;;;;27.77;17.80;;;25.80;48.40;;;;;;4916950;28;20253;-86
2021/04/01 12:25:18;;;;;;;19.20;16.43;;;25.80;48.20;;;;;;4939786;28;20603;-86
2021/04/01 12:27:53;;;;;;;18.20;15.97;;;25.80;48.40;;;;;;4928023;29;20202;-88
2021/04/01 12:30:37;;;;;;;24.13;17.90;;;25.90;47.80;;;;;;4929104;29;20214;-83
2021/04/01 12:33:19;;;;;;;20.60;16.33;;;25.90;47.80;;;;;;4927879;29;20205;-84
2021/04/01 12:36:00;;;;;;;29.43;24.50;;;25.90;48.10;;;;;;4940274;28;20209;-85
2021/04/01 12:38:42;;;;;;;41.17;30.03;;;25.90;45.50;;;;;;4926945;29;20209;-85
2021/04/01 12:41:23;;;;;;;34.27;26.70;;;25.60;43.00;;;;;;4938113;28;20293;-83
2021/04/01 12:43:50;;;;;;;36.10;25.60;;;25.30;42.10;;;;;;4923126;29;20601;-85
2021/04/01 12:46:16;;;;;;;31.07;23.30;;;25.20;41.90;;;;;;4930190;29;20210;-79
2021/04/01 12:48:52;;;;;;;26.60;21.43;;;25.20;41.40;;;;;;4928741;29;20213;-82
2021/04/01 12:51:20;;;;;;;25.23;17.57;;;25.00;40.90;;;;;;4929731;29;20206;-82
2021/04/01 12:54:09;;;;;;;21.80;16.13;;;25.00;40.60;;;;;;4925855;29;20237;-82
2021/04/01 12:56:42;;;;;;;20.63;15.47;;;25.00;40.60;;;;;;4928911;29;20205;-83
2021/04/01 12:59:13;;;;;;;19.60;14.37;;;25.00;40.60;;;;;;4927646;29;20787;-83
2021/04/01 13:01:51;;;;;;;19.93;12.67;;;25.00;40.40;;;;;;4926575;29;20533;-83
2021/04/01 13:04:21;;;;;;;18.63;12.73;;;24.90;40.30;;;;;;4928616;29;20908;-81
2021/04/01 13:07:08;;;;;;;20.53;12.13;;;24.90;40.60;;;;;;4927400;29;20603;-84
2021/04/01 13:09:44;;;;;;;16.07;11.27;;;24.80;40.00;;;;;;4933864;29;20230;-80
2021/04/01 13:12:16;;;;;;;17.90;11.03;;;24.70;40.10;;;;;;4945973;28;20228;-80
2021/04/01 13:14:43;;;;;;;18.00;11.30;;;24.80;39.90;;;;;;4943554;28;20207;-83
2021/04/01 13:17:10;;;;;;;16.77;9.80;;;24.70;39.80;;;;;;4945926;29;20633;-80
2021/04/01 13:19:36;;;;;;;17.10;9.30;;;24.70;40.30;;;;;;4942478;28;20194;-81
2021/04/01 13:22:16;;;;;;;14.47;9.03;;;24.80;40.30;;;;;;4943634;29;20214;-79
2021/04/01 13:25:09;;;;;;;16.03;9.03;;;24.70;40.30;;;;;;4941469;28;20186;-82
2021/04/01 13:27:29;;;;;;;13.70;8.23;;;24.70;40.00;;;;;;4944850;28;20201;-81
2021/04/01 13:30:00;;;;;;;14.13;7.60;;;24.60;39.70;;;;;;4947706;28;20209;-82
2021/04/01 13:35:17;;;;;;;12.47;7.20;;;24.60;39.70;;;;;;4947499;28;20193;-84
2021/04/01 13:38:27;;;;;;;10.90;6.97;;;24.60;39.90;;;;;;4930075;28;20888;-85
2021/04/01 13:40:36;;;;;;;8.13;5.90;;;24.60;40.40;;;;;;4935235;28;20217;-83
2021/04/01 13:43:03;;;;;;;9.93;5.37;;;24.70;41.50;;;;;;4945386;28;20216;-87
2021/04/01 13:45:30;;;;;;;10.50;5.47;;;24.80;40.50;;;;;;4949075;28;20198;-85
2021/04/01 13:48:02;;;;;;;9.13;5.37;;;24.70;40.10;;;;;;4949658;28;20213;-93
2021/04/01 13:50:33;;;;;;;8.20;5.17;;;24.70;40.20;;;;;;4949817;28;20311;-83
2021/04/01 13:56:01;;;;;;;8.87;4.87;;;24.60;40.10;;;;;;4947063;28;20201;-81
2021/04/01 14:10:10;;;;;;;7.37;3.50;;;24.50;41.60;;;;;;4888189;29;20239;-87
2021/04/01 14:12:37;;;;;;;9.83;3.73;;;24.50;41.20;;;;;;4920527;29;20258;-89
2021/04/01 14:15:06;;;;;;;7.73;3.70;;;24.60;41.10;;;;;;4941346;28;20205;-88
2021/04/01 14:17:33;;;;;;;10.37;3.80;;;24.50;40.30;;;;;;4949577;28;20198;-83
2021/04/01 14:20:05;;;;;;;10.43;3.73;;;24.40;40.10;;;;;;4945422;28;20205;-85
2021/04/01 14:22:33;;;;;;;7.47;3.23;;;24.40;40.10;;;;;;4943299;28;20244;-86
2021/04/01 14:25:05;;;;;;;10.63;3.23;;;24.30;40.50;;;;;;4947440;28;20198;-89
2021/04/01 14:27:36;;;;;;;7.10;3.00;;;24.30;40.50;;;;;;4948392;28;20205;-85
2021/04/01 14:30:05;;;;;;;6.27;3.03;;;24.40;40.80;;;;;;4941094;28;20206;-87
2021/04/01 14:32:36;;;;;;;8.90;3.10;;;24.40;40.90;;;;;;4932862;29;20198;-96
2021/04/01 14:35:04;;;;;;;8.70;3.33;;;24.40;40.80;;;;;;4918623;29;20190;-87
2021/04/01 14:37:32;;;;;;;7.23;2.87;;;24.40;40.60;;;;;;4929149;29;20213;-89
2021/04/01 14:40:01;;;;;;;9.73;3.00;;;24.40;40.90;;;;;;4942361;29;20194;-90
2021/04/01 14:42:45;;;;;;;8.27;3.20;;;24.40;40.90;;;;;;4945505;29;20233;-87
2021/04/01 14:45:12;;;;;;;10.77;3.30;;;24.40;40.60;;;;;;4946295;29;20304;-93